createdAt,value
2018-12-24T00:01:44.110Z,97.80
2018-12-24T00:04:21.593Z,97.90
2018-12-24T00:06:59.100Z,98.00
2018-12-24T00:09:36.584Z,98.00
2018-12-24T00:12:14.092Z,98.10
2018-12-24T00:14:51.583Z,98.20
2018-12-24T00:17:29.078Z,98.30
2018-12-24T00:20:06.562Z,98.30
2018-12-24T00:22:44.067Z,98.40
2018-12-24T00:25:21.597Z,98.40
2018-12-24T00:27:59.078Z,98.50
2018-12-24T00:30:36.580Z,98.60
2018-12-24T00:33:14.055Z,98.60
2018-12-24T00:35:51.554Z,98.60
2018-12-24T00:38:29.037Z,98.70
2018-12-24T00:41:06.562Z,98.70
2018-12-24T00:43:44.050Z,98.80
2018-12-24T00:46:21.547Z,98.80
2018-12-24T00:48:59.020Z,98.80
2018-12-24T00:51:36.526Z,98.80
2018-12-24T00:54:14.017Z,98.80
2018-12-24T00:56:51.528Z,98.90
2018-12-24T00:59:29.023Z,98.90
2018-12-24T01:02:06.524Z,98.90
2018-12-24T01:04:44.008Z,98.90
2018-12-24T01:07:21.536Z,99.00
2018-12-24T01:09:59.041Z,99.00
2018-12-24T01:12:36.545Z,99.10
2018-12-24T01:15:14.006Z,99.20
2018-12-24T01:17:51.538Z,99.10
2018-12-24T01:20:29.024Z,99.20
2018-12-24T01:23:06.520Z,99.20
2018-12-24T01:25:44.044Z,99.20
2018-12-24T01:28:21.528Z,99.20
2018-12-24T01:30:59.031Z,99.30
2018-12-24T01:33:36.791Z,99.30
2018-12-24T01:36:14.293Z,99.20
2018-12-24T01:38:51.776Z,99.20
2018-12-24T01:41:29.267Z,99.20
2018-12-24T01:44:06.746Z,99.10
2018-12-24T01:46:44.264Z,99.10
2018-12-24T01:49:21.743Z,99.10
2018-12-24T01:51:59.248Z,99.20
2018-12-24T01:54:36.810Z,99.20
2018-12-24T01:57:14.319Z,99.60
2018-12-24T01:59:51.808Z,99.20
2018-12-24T02:02:29.361Z,99.20
2018-12-24T02:05:06.950Z,99.30
2018-12-24T02:07:44.445Z,99.30
2018-12-24T02:10:21.937Z,99.30
2018-12-24T02:12:59.451Z,99.40
2018-12-24T02:15:36.930Z,99.30
2018-12-24T02:18:14.461Z,99.30
2018-12-24T02:20:51.977Z,99.30
2018-12-24T02:23:29.508Z,99.30
2018-12-24T02:26:07.008Z,99.30
2018-12-24T02:28:44.524Z,99.30
2018-12-24T02:31:22.034Z,99.30
2018-12-24T02:33:59.503Z,99.30
2018-12-24T02:36:37.018Z,99.40
2018-12-24T02:39:14.505Z,99.40
2018-12-24T02:41:52.018Z,99.40
2018-12-24T02:44:29.571Z,99.50
2018-12-24T02:47:07.098Z,99.50
2018-12-24T02:49:44.581Z,99.50
2018-12-24T02:52:22.078Z,99.50
2018-12-24T02:54:59.557Z,99.60
2018-12-24T02:57:37.057Z,99.60
2018-12-24T03:00:14.536Z,99.60
2018-12-24T03:02:52.061Z,99.60
2018-12-24T03:05:29.536Z,99.70
2018-12-24T03:08:07.037Z,99.50
2018-12-24T03:10:44.876Z,99.50
2018-12-24T03:13:22.380Z,99.60
2018-12-24T03:15:59.861Z,99.50
2018-12-24T03:18:37.681Z,99.50
2018-12-24T03:21:15.173Z,99.40
2018-12-24T03:23:52.684Z,99.50
2018-12-24T03:26:30.191Z,99.50
2018-12-24T03:29:07.944Z,99.50
2018-12-24T03:31:45.458Z,99.50
2018-12-24T03:34:22.943Z,99.50
2018-12-24T03:37:00.457Z,99.60
2018-12-24T03:39:38.059Z,99.50
2018-12-24T03:42:15.575Z,99.60
2018-12-24T03:44:53.069Z,99.60
2018-12-24T03:47:30.577Z,99.60
2018-12-24T03:50:08.189Z,99.70
2018-12-24T03:52:45.701Z,99.70
2018-12-24T03:55:23.184Z,99.70
2018-12-24T03:58:00.692Z,99.80
2018-12-24T04:00:38.354Z,99.80
2018-12-24T04:03:15.861Z,99.80
2018-12-24T04:05:53.339Z,99.90
2018-12-24T04:08:30.841Z,99.90
2018-12-24T04:11:08.875Z,99.90
2018-12-24T04:13:46.383Z,99.90
2018-12-24T04:16:23.910Z,99.90
2018-12-24T04:19:01.400Z,99.90
2018-12-24T04:21:38.917Z,99.90
2018-12-24T04:24:16.437Z,99.90
2018-12-24T04:26:53.927Z,99.90
2018-12-24T04:29:31.449Z,99.90
2018-12-24T04:32:08.951Z,99.90
2018-12-24T04:34:46.716Z,99.90
2018-12-24T04:37:24.536Z,99.90
2018-12-24T04:40:02.056Z,99.90
2018-12-24T04:42:39.546Z,99.90
2018-12-24T04:45:17.022Z,99.90
2018-12-24T04:47:54.527Z,99.90
2018-12-24T04:50:32.019Z,99.90
2018-12-24T04:53:09.527Z,99.90
2018-12-24T04:55:47.362Z,99.90
2018-12-24T04:58:24.871Z,99.90
2018-12-24T05:01:02.395Z,99.90
2018-12-24T05:03:39.961Z,99.90
2018-12-24T05:06:17.506Z,99.90
2018-12-24T05:08:55.027Z,99.90
2018-12-24T05:11:32.504Z,99.90
2018-12-24T05:14:10.059Z,99.90
2018-12-24T05:16:50.060Z,99.90
2018-12-24T05:19:27.558Z,99.80
2018-12-24T05:22:05.074Z,99.80
2018-12-24T05:24:42.582Z,99.80
2018-12-24T05:27:20.059Z,99.80
2018-12-24T05:29:57.564Z,99.80
2018-12-24T05:32:35.075Z,99.80
2018-12-24T05:35:12.583Z,99.80
2018-12-24T05:37:50.105Z,99.80
2018-12-24T05:40:27.622Z,99.80
2018-12-24T05:43:05.123Z,99.70
2018-12-24T05:45:42.615Z,99.70
2018-12-24T05:48:20.123Z,99.70
2018-12-24T05:50:57.621Z,99.70
2018-12-24T05:53:35.135Z,99.50
2018-12-24T05:56:12.616Z,99.40
2018-12-24T05:58:50.124Z,99.20
2018-12-24T06:01:27.624Z,99.20
2018-12-24T06:04:05.159Z,99.10
2018-12-24T06:06:42.649Z,99.10
2018-12-24T06:09:20.169Z,99.10
2018-12-24T06:11:57.657Z,99.10
2018-12-24T06:14:35.260Z,99.20
2018-12-24T06:17:13.030Z,99.10
2018-12-24T06:19:50.536Z,99.20
2018-12-24T06:22:28.037Z,99.10
2018-12-24T06:25:05.579Z,99.20
2018-12-24T06:27:43.076Z,99.20
2018-12-24T06:30:20.573Z,99.20
2018-12-24T06:32:58.448Z,99.20
2018-12-24T06:35:35.937Z,99.10
2018-12-24T06:38:13.449Z,99.10
2018-12-24T06:40:50.926Z,99.00
2018-12-24T06:43:28.493Z,99.00
2018-12-24T06:46:05.972Z,98.90
2018-12-24T06:48:43.514Z,98.90
2018-12-24T06:51:20.973Z,98.90
2018-12-24T06:53:58.489Z,98.90
2018-12-24T06:56:35.972Z,98.80
2018-12-24T06:59:13.477Z,98.70
2018-12-24T07:01:50.955Z,98.70
2018-12-24T07:04:28.468Z,98.60
2018-12-24T07:07:05.959Z,98.50
2018-12-24T07:09:43.471Z,98.50
2018-12-24T07:12:20.956Z,98.40
2018-12-24T07:14:58.474Z,98.40
2018-12-24T07:17:35.961Z,98.30
2018-12-24T07:20:13.465Z,98.20
2018-12-24T07:22:50.980Z,98.20
2018-12-24T07:25:28.499Z,98.20
2018-12-24T07:28:05.990Z,98.20
2018-12-24T07:30:43.498Z,98.20
2018-12-24T07:33:21.014Z,98.20
2018-12-24T07:35:58.507Z,98.10
2018-12-24T07:38:36.036Z,98.10
2018-12-24T07:41:13.529Z,98.00
2018-12-24T07:43:51.045Z,98.10
2018-12-24T07:46:28.527Z,98.00
2018-12-24T07:49:06.055Z,98.10
2018-12-24T07:51:43.552Z,98.00
2018-12-24T07:54:21.060Z,98.00
2018-12-24T07:56:58.557Z,98.00
2018-12-24T07:59:36.101Z,97.80
2018-12-24T08:02:13.582Z,97.90
2018-12-24T08:04:51.205Z,98.00
2018-12-24T08:07:28.576Z,98.00
2018-12-24T08:10:06.159Z,98.10
2018-12-24T08:12:43.643Z,98.20
2018-12-24T08:15:21.167Z,98.30
2018-12-24T08:17:58.666Z,98.20
2018-12-24T08:20:36.205Z,98.30
2018-12-24T08:23:13.714Z,98.30
2018-12-24T08:25:51.238Z,98.20
2018-12-24T08:28:28.727Z,98.20
2018-12-24T08:31:06.240Z,98.20
2018-12-24T08:33:43.735Z,98.20
2018-12-24T08:36:21.249Z,98.20
2018-12-24T08:38:59.016Z,98.30
2018-12-24T08:41:36.505Z,98.30
2018-12-24T08:44:14.042Z,98.40
2018-12-24T08:46:51.542Z,98.30
2018-12-24T08:49:29.072Z,98.10
2018-12-24T08:52:06.557Z,98.00
2018-12-24T08:54:44.068Z,98.00
2018-12-24T08:57:21.558Z,97.60
2018-12-24T08:59:59.084Z,97.40
2018-12-24T09:02:36.585Z,97.30
2018-12-24T09:05:14.107Z,97.00
2018-12-24T09:07:51.581Z,97.00
2018-12-24T09:10:29.122Z,96.80
2018-12-24T09:13:06.606Z,96.60
2018-12-24T09:15:44.108Z,96.50
2018-12-24T09:18:21.612Z,96.50
2018-12-24T09:20:59.128Z,96.20
2018-12-24T09:23:36.656Z,96.10
2018-12-24T09:26:14.173Z,96.00
2018-12-24T09:28:51.679Z,95.80
2018-12-24T09:31:29.192Z,95.70
2018-12-24T09:34:06.657Z,95.30
2018-12-24T09:36:44.178Z,95.20
2018-12-24T09:39:21.701Z,95.00
2018-12-24T09:41:59.191Z,94.90
2018-12-24T09:44:36.707Z,94.80
2018-12-24T09:47:14.260Z,94.70
2018-12-24T09:49:51.774Z,94.60
2018-12-24T09:52:29.276Z,94.50
2018-12-24T09:55:06.985Z,94.50
2018-12-24T09:57:44.461Z,94.90
2018-12-24T10:00:22.117Z,94.70
2018-12-24T10:03:27.997Z,94.70
2018-12-24T10:06:34.901Z,94.50
2018-12-24T10:09:15.654Z,94.40
2018-12-24T10:11:53.160Z,94.50
2018-12-24T10:14:30.647Z,94.40
2018-12-24T10:17:08.160Z,94.40
2018-12-24T10:19:45.696Z,94.20
2018-12-24T10:22:23.204Z,93.90
2018-12-24T10:25:00.736Z,93.70
2018-12-24T10:27:38.221Z,93.80
2018-12-24T10:30:15.727Z,93.70
2018-12-24T10:32:53.238Z,93.90
2018-12-24T10:35:30.748Z,93.90
2018-12-24T10:38:08.228Z,93.90
2018-12-24T10:41:53.571Z,93.90
2018-12-24T10:44:31.191Z,93.80
2018-12-24T10:47:08.755Z,93.40
2018-12-24T10:49:46.266Z,93.30
2018-12-24T10:52:23.796Z,93.40
2018-12-24T10:55:01.312Z,93.60
2018-12-24T10:57:38.789Z,93.70
2018-12-24T11:00:16.344Z,93.80
2018-12-24T11:02:53.853Z,93.50
2018-12-24T11:05:31.367Z,93.30
2018-12-24T11:08:14.739Z,93.50
2018-12-24T11:10:58.977Z,93.40
2018-12-24T11:13:36.470Z,93.60
2018-12-24T11:16:13.962Z,93.50
2018-12-24T11:18:51.441Z,93.40
2018-12-24T11:21:30.090Z,93.30
2018-12-24T11:24:07.781Z,93.20
2018-12-24T11:26:45.420Z,93.00
2018-12-24T11:29:22.925Z,92.70
2018-12-24T11:32:01.536Z,92.50
2018-12-24T11:34:39.144Z,92.30
2018-12-24T11:37:17.048Z,92.30
2018-12-24T11:39:54.611Z,92.30
2018-12-24T11:42:32.719Z,92.30
2018-12-24T11:45:10.982Z,92.20
2018-12-24T11:47:48.837Z,92.10
2018-12-24T11:50:26.617Z,91.90
2018-12-24T11:53:04.693Z,91.80
2018-12-24T11:55:42.616Z,91.60
2018-12-24T11:58:20.753Z,91.20
2018-12-24T12:00:58.744Z,91.20
2018-12-24T12:03:36.639Z,91.00
2018-12-24T12:06:19.682Z,91.00
2018-12-24T12:08:52.369Z,91.00
2018-12-24T12:11:30.632Z,91.00
2018-12-24T12:14:08.344Z,90.90
2018-12-24T12:16:46.195Z,90.80
2018-12-24T12:19:24.166Z,90.60
2018-12-24T12:22:01.934Z,90.50
2018-12-24T12:24:39.673Z,90.40
2018-12-24T12:27:17.260Z,90.50
2018-12-24T12:29:54.948Z,90.40
2018-12-24T12:32:32.465Z,90.30
2018-12-24T12:35:10.276Z,90.40
2018-12-24T12:37:47.858Z,90.40
2018-12-24T12:40:25.356Z,90.40
2018-12-24T12:43:02.901Z,90.50
2018-12-24T12:45:40.390Z,90.60
2018-12-24T12:48:21.429Z,90.50
2018-12-24T12:50:57.861Z,90.50
2018-12-24T12:53:35.372Z,90.50
2018-12-24T12:56:12.910Z,90.40
2018-12-24T12:58:50.426Z,90.40
2018-12-24T13:01:27.936Z,90.40
2018-12-24T13:04:05.513Z,90.30
2018-12-24T13:06:42.956Z,90.30
2018-12-24T13:09:20.450Z,90.20
2018-12-24T13:11:57.969Z,90.30
2018-12-24T13:14:35.463Z,90.30
2018-12-24T13:17:12.969Z,90.30
2018-12-24T13:19:50.486Z,90.20
2018-12-24T13:22:28.019Z,90.10
2018-12-24T13:25:05.516Z,90.10
2018-12-24T13:27:43.038Z,90.00
2018-12-24T13:30:20.537Z,89.90
2018-12-24T13:32:58.039Z,89.80
2018-12-24T13:35:35.544Z,89.50
2018-12-24T13:38:13.057Z,89.50
2018-12-24T13:40:50.553Z,89.40
2018-12-24T13:43:28.070Z,89.60
2018-12-24T13:46:08.263Z,89.10
2018-12-24T13:48:43.998Z,89.30
2018-12-24T13:51:21.510Z,89.40
2018-12-24T13:53:59.068Z,89.50
2018-12-24T13:56:36.687Z,89.30
2018-12-24T13:59:14.188Z,89.10
2018-12-24T14:01:51.706Z,90.00
2018-12-24T14:04:29.278Z,89.10
2018-12-24T14:07:07.094Z,89.00
2018-12-24T14:09:44.604Z,88.70
2018-12-24T14:12:22.103Z,88.80
2018-12-24T14:14:59.684Z,88.80
2018-12-24T14:17:38.022Z,89.10
2018-12-24T14:20:17.573Z,89.40
2018-12-24T14:22:58.364Z,89.30
2018-12-24T14:25:38.346Z,89.10
2018-12-24T14:28:14.252Z,89.10
2018-12-24T14:30:51.752Z,89.40
2018-12-24T14:33:29.269Z,89.40
2018-12-24T14:36:07.091Z,89.40
2018-12-24T14:38:44.599Z,89.30
2018-12-24T14:41:22.108Z,89.40
2018-12-24T14:43:59.678Z,89.50
2018-12-24T14:46:37.220Z,90.00
2018-12-24T14:49:14.784Z,90.00
2018-12-24T14:51:52.304Z,90.00
2018-12-24T14:54:29.819Z,90.10
2018-12-24T14:57:07.351Z,90.30
2018-12-24T14:59:44.883Z,90.20
2018-12-24T15:02:22.450Z,90.10
2018-12-24T15:04:59.943Z,90.30
2018-12-24T15:07:37.533Z,90.10
2018-12-24T15:10:15.040Z,90.00
2018-12-24T15:12:52.564Z,90.00
2018-12-24T15:15:30.046Z,89.80
2018-12-24T15:18:07.544Z,89.70
2018-12-24T15:20:45.026Z,89.90
2018-12-24T15:23:22.549Z,90.00
2018-12-24T15:26:00.035Z,90.00
2018-12-24T15:28:37.540Z,89.80
2018-12-24T15:31:15.030Z,89.50
2018-12-24T15:33:52.561Z,89.30
2018-12-24T15:36:32.149Z,89.30
2018-12-24T15:39:08.577Z,89.30
2018-12-24T15:41:46.591Z,90.00
2018-12-24T15:44:26.380Z,89.10
2018-12-24T15:47:05.722Z,89.10
2018-12-24T15:49:43.965Z,89.00
2018-12-24T15:52:21.843Z,89.00
2018-12-24T15:54:59.844Z,88.80
2018-12-24T15:57:37.661Z,88.20
2018-12-24T16:00:16.839Z,87.70
2018-12-24T16:02:56.684Z,87.90
2018-12-24T16:05:34.687Z,87.40
2018-12-24T16:08:12.520Z,86.60
2018-12-24T16:10:50.289Z,86.60
2018-12-24T16:13:29.118Z,86.30
2018-12-24T16:16:10.280Z,86.40
2018-12-24T16:18:47.885Z,86.40
2018-12-24T16:21:25.561Z,86.60
2018-12-24T16:24:03.046Z,86.50
2018-12-24T16:26:40.591Z,86.40
2018-12-24T16:29:18.246Z,86.60
2018-12-24T16:31:55.847Z,86.90
2018-12-24T16:34:33.435Z,86.70
2018-12-24T16:37:11.023Z,86.70
2018-12-24T16:39:48.571Z,86.60
2018-12-24T16:42:26.137Z,86.90
2018-12-24T16:45:04.970Z,86.60
2018-12-24T16:47:43.439Z,86.80
2018-12-24T16:50:21.718Z,86.50
2018-12-24T16:52:59.218Z,86.70
2018-12-24T16:55:36.718Z,86.50
2018-12-24T16:58:14.244Z,86.50
2018-12-24T17:00:51.722Z,86.70
2018-12-24T17:03:29.271Z,87.20
2018-12-24T17:06:06.766Z,87.80
2018-12-24T17:08:44.289Z,88.20
2018-12-24T17:11:21.797Z,88.80
2018-12-24T17:13:59.413Z,89.30
2018-12-24T17:16:37.205Z,89.70
2018-12-24T17:19:14.744Z,90.00
2018-12-24T17:21:52.221Z,90.10
2018-12-24T17:24:29.774Z,90.00
2018-12-24T17:27:07.270Z,90.20
2018-12-24T17:29:44.803Z,90.20
2018-12-24T17:32:22.298Z,90.30
2018-12-24T17:34:59.829Z,90.30
2018-12-24T17:37:37.325Z,90.30
2018-12-24T17:40:14.878Z,90.30
2018-12-24T17:42:52.357Z,90.30
2018-12-24T17:45:29.849Z,90.10
2018-12-24T17:48:07.353Z,90.10
2018-12-24T17:50:44.853Z,90.00
2018-12-24T17:53:22.368Z,90.00
2018-12-24T17:56:00.022Z,89.90
2018-12-24T17:58:37.550Z,89.80
2018-12-24T18:01:15.033Z,89.60
2018-12-24T18:03:52.568Z,89.50
2018-12-24T18:06:30.063Z,89.50
2018-12-24T18:09:09.435Z,89.30
2018-12-24T18:11:46.910Z,89.20
2018-12-24T18:14:24.426Z,89.10
2018-12-24T18:17:01.938Z,88.80
2018-12-24T18:19:39.457Z,88.70
2018-12-24T18:22:17.353Z,88.60
2018-12-24T18:24:54.877Z,88.60
2018-12-24T18:27:32.371Z,88.70
2018-12-24T18:30:11.392Z,88.60
2018-12-24T18:32:48.875Z,88.20
2018-12-24T18:35:26.413Z,88.10
2018-12-24T18:38:03.913Z,88.10
2018-12-24T18:40:41.474Z,88.20
2018-12-24T18:43:18.975Z,88.00
2018-12-24T18:45:56.641Z,87.50
2018-12-24T18:48:34.125Z,87.20
2018-12-24T18:51:11.642Z,87.00
2018-12-24T18:53:49.154Z,86.70
2018-12-24T18:56:26.674Z,86.50
2018-12-24T18:59:04.216Z,86.30
2018-12-24T19:01:41.741Z,86.10
2018-12-24T19:04:19.262Z,86.20
2018-12-24T19:06:56.756Z,86.00
2018-12-24T19:09:34.264Z,85.90
2018-12-24T19:12:12.696Z,85.80
2018-12-24T19:14:50.218Z,85.50
2018-12-24T19:17:27.699Z,85.40
2018-12-24T19:20:05.264Z,85.50
2018-12-24T19:22:42.868Z,85.60
2018-12-24T19:25:20.748Z,85.50
2018-12-24T19:27:58.230Z,85.70
2018-12-24T19:30:35.771Z,85.60
2018-12-24T19:33:13.255Z,85.60
2018-12-24T19:35:50.795Z,85.80
2018-12-24T19:38:28.330Z,86.00
2018-12-24T19:41:05.852Z,86.20
2018-12-24T19:43:43.353Z,86.50
2018-12-24T19:46:20.881Z,86.90
2018-12-24T19:48:58.367Z,87.20
2018-12-24T19:51:35.887Z,87.70
2018-12-24T19:54:13.414Z,88.30
2018-12-24T19:56:50.893Z,88.60
2018-12-24T19:59:28.415Z,88.80
2018-12-24T20:02:05.917Z,89.10
2018-12-24T20:04:43.468Z,89.20
2018-12-24T20:07:20.974Z,89.20
2018-12-24T20:09:58.475Z,89.30
2018-12-24T20:12:36.024Z,89.40
2018-12-24T20:15:13.484Z,89.30
2018-12-24T20:17:58.085Z,89.30
2018-12-24T20:20:28.507Z,89.50
2018-12-24T20:23:06.009Z,89.50
2018-12-24T20:25:43.521Z,89.60
2018-12-24T20:28:21.011Z,89.50
2018-12-24T20:30:58.534Z,89.30
2018-12-24T20:33:36.053Z,89.30
2018-12-24T20:36:15.756Z,89.80
2018-12-24T20:38:53.227Z,90.10
2018-12-24T20:41:30.729Z,90.30
2018-12-24T20:44:08.203Z,90.40
2018-12-24T20:46:45.699Z,90.50
2018-12-24T20:49:23.195Z,90.70
2018-12-24T20:52:00.714Z,90.70
2018-12-24T20:54:38.654Z,90.70
2018-12-24T20:57:15.722Z,90.70
2018-12-24T20:59:54.074Z,90.70
2018-12-24T21:02:32.929Z,90.70
2018-12-24T21:05:11.301Z,90.70
2018-12-24T21:07:48.830Z,90.60
2018-12-24T21:10:26.443Z,90.50
2018-12-24T21:13:03.953Z,90.40
2018-12-24T21:15:41.986Z,90.40
2018-12-24T21:18:19.523Z,90.40
2018-12-24T21:20:57.096Z,90.40
2018-12-24T21:23:34.710Z,90.40
2018-12-24T21:26:12.228Z,90.40
2018-12-24T21:28:49.762Z,90.40
2018-12-24T21:31:27.368Z,90.40
2018-12-24T21:34:04.870Z,90.40
2018-12-24T21:36:42.450Z,90.40
2018-12-24T21:39:19.982Z,90.40
2018-12-24T21:41:57.532Z,90.50
2018-12-24T21:44:35.017Z,90.40
2018-12-24T21:47:12.522Z,90.40
2018-12-24T21:49:50.022Z,90.50
2018-12-24T21:52:27.532Z,90.50
2018-12-24T21:55:05.038Z,90.60
2018-12-24T21:57:43.201Z,90.50
2018-12-24T22:00:21.077Z,90.50
2018-12-24T22:02:58.581Z,90.60
2018-12-24T22:05:36.406Z,90.60
2018-12-24T22:08:13.902Z,90.70
2018-12-24T22:10:51.413Z,90.70
2018-12-24T22:13:28.910Z,90.70
2018-12-24T22:16:06.424Z,90.70
2018-12-24T22:18:43.884Z,90.70
2018-12-24T22:21:21.409Z,90.80
2018-12-24T22:23:58.912Z,90.80
2018-12-24T22:26:36.730Z,90.90
2018-12-24T22:29:14.221Z,90.90
2018-12-24T22:31:52.008Z,90.90
2018-12-24T22:34:29.487Z,91.00
2018-12-24T22:37:06.995Z,91.00
2018-12-24T22:39:44.473Z,91.10
2018-12-24T22:42:22.130Z,91.10
2018-12-24T22:44:59.618Z,91.20
2018-12-24T22:47:37.140Z,91.20
2018-12-24T22:50:14.615Z,91.30
2018-12-24T22:52:52.462Z,91.40
2018-12-24T22:55:29.954Z,91.40
2018-12-24T22:58:10.447Z,91.40
2018-12-24T23:00:49.830Z,91.50
2018-12-24T23:03:27.313Z,91.60
2018-12-24T23:06:04.828Z,91.70
2018-12-24T23:08:42.320Z,91.80
2018-12-24T23:11:19.828Z,91.80
2018-12-24T23:13:57.302Z,91.80
2018-12-24T23:16:34.832Z,91.90
2018-12-24T23:19:12.307Z,91.80
2018-12-24T23:21:49.810Z,91.80
2018-12-24T23:24:27.408Z,91.90
2018-12-24T23:27:04.912Z,91.90
2018-12-24T23:29:42.478Z,91.90
2018-12-24T23:32:19.973Z,92.00
2018-12-24T23:34:57.454Z,92.00
2018-12-24T23:37:35.254Z,92.00
2018-12-24T23:40:12.726Z,92.00
2018-12-24T23:42:50.600Z,92.10
2018-12-24T23:45:28.079Z,92.10
2018-12-24T23:48:05.587Z,92.20
2018-12-24T23:50:43.200Z,92.20
2018-12-24T23:53:20.717Z,92.30
2018-12-24T23:55:58.242Z,92.20
2018-12-24T23:58:36.875Z,92.30
